createdAt,value
2022-09-13T00:00:20.722Z,14.17
2022-09-13T00:01:20.693Z,14.24
2022-09-13T00:02:20.595Z,14.19
2022-09-13T00:03:20.485Z,14.11
2022-09-13T00:04:20.487Z,14.09
2022-09-13T00:05:20.329Z,14.13
2022-09-13T00:06:20.247Z,14.11
2022-09-13T00:07:20.170Z,14.01
2022-09-13T00:08:20.090Z,13.91
2022-09-13T00:09:20.020Z,13.95
2022-09-13T00:10:19.938Z,13.89
2022-09-13T00:11:19.860Z,13.84
2022-09-13T00:12:19.780Z,13.91
2022-09-13T00:13:19.705Z,13.84
2022-09-13T00:14:19.623Z,13.83
2022-09-13T00:15:19.549Z,13.87
2022-09-13T00:16:19.524Z,13.92
2022-09-13T00:17:19.394Z,13.86
2022-09-13T00:18:19.314Z,13.81
2022-09-13T00:19:19.287Z,13.84
2022-09-13T00:20:19.161Z,13.74
2022-09-13T00:21:19.078Z,13.78
2022-09-13T00:22:19.006Z,13.86
2022-09-13T00:23:18.925Z,13.78
2022-09-13T00:24:18.845Z,13.71
2022-09-13T00:25:18.766Z,13.76
2022-09-13T00:26:18.689Z,13.70
2022-09-13T00:27:18.611Z,13.70
2022-09-13T00:28:18.535Z,13.71
2022-09-13T00:29:18.463Z,13.74
2022-09-13T00:30:18.387Z,13.76
2022-09-13T00:31:18.379Z,13.59
2022-09-13T00:32:18.220Z,13.56
2022-09-13T00:33:18.151Z,13.63
2022-09-13T00:34:18.065Z,13.56
2022-09-13T00:35:17.991Z,13.66
2022-09-13T00:36:17.909Z,13.65
2022-09-13T00:37:17.829Z,13.70
2022-09-13T00:38:17.752Z,13.56
2022-09-13T00:39:17.676Z,13.61
2022-09-13T00:40:17.627Z,13.66
2022-09-13T00:41:17.529Z,13.66
2022-09-13T00:42:17.441Z,13.62
2022-09-13T00:43:17.372Z,13.53
2022-09-13T00:44:17.280Z,13.45
2022-09-13T00:45:17.205Z,13.37
2022-09-13T00:46:17.133Z,13.38
2022-09-13T00:47:17.054Z,13.33
2022-09-13T00:48:17.007Z,13.36
2022-09-13T00:49:16.906Z,13.33
2022-09-13T00:50:16.817Z,13.36
2022-09-13T00:51:16.735Z,13.37
2022-09-13T00:52:16.656Z,13.38
2022-09-13T00:53:16.581Z,13.37
2022-09-13T00:54:16.504Z,13.38
2022-09-13T00:55:16.421Z,13.27
2022-09-13T00:56:16.343Z,13.19
2022-09-13T00:57:16.269Z,13.11
2022-09-13T00:58:16.192Z,13.14
2022-09-13T00:59:16.110Z,13.15
2022-09-13T01:00:16.032Z,13.03
2022-09-13T01:01:15.976Z,13.06
2022-09-13T01:02:15.929Z,13.00
2022-09-13T01:03:15.801Z,13.02
2022-09-13T01:04:15.718Z,13.21
2022-09-13T01:05:15.644Z,13.18
2022-09-13T01:06:15.564Z,13.18
2022-09-13T01:07:15.485Z,13.19
2022-09-13T01:08:15.406Z,13.28
2022-09-13T01:09:15.331Z,13.21
2022-09-13T01:10:15.254Z,13.22
2022-09-13T01:11:15.176Z,13.11
2022-09-13T01:12:15.104Z,13.25
2022-09-13T01:13:15.111Z,13.28
2022-09-13T01:14:14.946Z,13.19
2022-09-13T01:15:14.861Z,13.29
2022-09-13T01:16:14.810Z,13.28
2022-09-13T01:17:14.707Z,13.27
2022-09-13T01:18:14.625Z,13.32
2022-09-13T01:19:14.546Z,13.24
2022-09-13T01:20:14.464Z,13.24
2022-09-13T01:21:14.389Z,13.37
2022-09-13T01:22:14.311Z,13.28
2022-09-13T01:23:14.233Z,13.25
2022-09-13T01:24:14.156Z,13.24
2022-09-13T01:25:14.078Z,13.17
2022-09-13T01:26:13.994Z,13.03
2022-09-13T01:27:13.918Z,13.00
2022-09-13T01:28:13.845Z,12.94
2022-09-13T01:29:13.767Z,12.84
2022-09-13T01:30:13.683Z,12.79
2022-09-13T01:31:13.708Z,12.73
2022-09-13T01:32:13.527Z,12.67
2022-09-13T01:33:13.448Z,12.64
2022-09-13T01:34:13.376Z,12.74
2022-09-13T01:35:13.292Z,12.81
2022-09-13T01:36:13.215Z,12.79
2022-09-13T01:37:13.135Z,12.70
2022-09-13T01:38:13.060Z,12.56
2022-09-13T01:39:12.977Z,12.61
2022-09-13T01:40:13.168Z,12.63
2022-09-13T01:41:12.822Z,12.70
2022-09-13T01:42:12.755Z,12.69
2022-09-13T01:43:12.670Z,12.67
2022-09-13T01:44:12.588Z,12.77
2022-09-13T01:45:12.514Z,12.79
2022-09-13T01:46:12.450Z,12.88
2022-09-13T01:47:12.352Z,12.73
2022-09-13T01:48:12.272Z,12.79
2022-09-13T01:49:12.197Z,12.81
2022-09-13T01:50:12.112Z,12.78
2022-09-13T01:51:12.037Z,12.79
2022-09-13T01:52:11.960Z,12.91
2022-09-13T01:53:11.880Z,12.84
2022-09-13T01:54:11.798Z,12.82
2022-09-13T01:55:11.721Z,12.82
2022-09-13T01:56:11.647Z,12.84
2022-09-13T01:57:11.568Z,12.79
2022-09-13T01:58:11.501Z,12.77
2022-09-13T01:59:11.406Z,12.79
2022-09-13T02:00:11.332Z,12.67
2022-09-13T02:01:11.292Z,12.56
2022-09-13T02:02:11.209Z,12.55
2022-09-13T02:03:11.095Z,12.63
2022-09-13T02:04:11.019Z,12.60
2022-09-13T02:05:10.936Z,12.53
2022-09-13T02:06:10.854Z,12.48
2022-09-13T02:07:10.779Z,12.48
2022-09-13T02:08:10.704Z,12.48
2022-09-13T02:09:10.620Z,12.51
2022-09-13T02:10:10.543Z,12.53
2022-09-13T02:11:10.464Z,12.52
2022-09-13T02:12:10.474Z,12.46
2022-09-13T02:13:10.309Z,12.55
2022-09-13T02:14:10.229Z,12.48
2022-09-13T02:15:10.156Z,12.44
2022-09-13T02:16:10.121Z,12.49
2022-09-13T02:17:10.000Z,12.37
2022-09-13T02:18:09.910Z,12.28
2022-09-13T02:19:09.835Z,12.28
2022-09-13T02:20:09.756Z,12.19
2022-09-13T02:21:09.678Z,12.16
2022-09-13T02:22:09.598Z,12.15
2022-09-13T02:23:09.517Z,12.13
2022-09-13T02:24:09.441Z,12.09
2022-09-13T02:25:09.367Z,12.05
2022-09-13T02:26:09.282Z,12.08
2022-09-13T02:27:09.207Z,12.09
2022-09-13T02:28:09.128Z,11.95
2022-09-13T02:29:09.045Z,11.98
2022-09-13T02:30:08.977Z,12.09
2022-09-13T02:31:08.897Z,12.05
2022-09-13T02:32:08.815Z,12.08
2022-09-13T02:33:08.734Z,12.09
2022-09-13T02:34:08.652Z,12.13
2022-09-13T02:35:08.571Z,12.24
2022-09-13T02:36:08.499Z,12.12
2022-09-13T02:37:08.414Z,12.23
2022-09-13T02:38:08.341Z,12.19
2022-09-13T02:39:08.256Z,12.19
2022-09-13T02:40:08.221Z,12.21
2022-09-13T02:41:08.099Z,12.13
2022-09-13T02:42:11.812Z,12.12
2022-09-13T02:43:07.941Z,12.11
2022-09-13T02:44:07.911Z,12.15
2022-09-13T02:45:07.782Z,12.16
2022-09-13T02:46:07.760Z,12.08
2022-09-13T02:47:07.625Z,12.06
2022-09-13T02:48:07.550Z,12.06
2022-09-13T02:49:07.468Z,12.05
2022-09-13T02:50:07.402Z,12.09
2022-09-13T02:51:07.314Z,12.11
2022-09-13T02:52:07.232Z,12.09
2022-09-13T02:53:07.159Z,11.95
2022-09-13T02:54:07.074Z,11.93
2022-09-13T02:55:06.997Z,11.97
2022-09-13T02:56:06.919Z,11.98
2022-09-13T02:57:06.840Z,11.97
2022-09-13T02:58:06.762Z,11.97
2022-09-13T02:59:06.677Z,11.97
2022-09-13T03:00:06.603Z,11.94
2022-09-13T03:01:06.611Z,11.95
2022-09-13T03:02:06.461Z,11.98
2022-09-13T03:03:06.362Z,11.97
2022-09-13T03:04:06.287Z,12.11
2022-09-13T03:05:06.210Z,11.93
2022-09-13T03:06:06.127Z,11.98
2022-09-13T03:07:06.058Z,11.98
2022-09-13T03:08:05.971Z,11.95
2022-09-13T03:09:05.899Z,11.93
2022-09-13T03:10:05.810Z,11.98
2022-09-13T03:11:05.733Z,12.08
2022-09-13T03:12:05.653Z,12.09
2022-09-13T03:13:05.572Z,12.09
2022-09-13T03:14:05.499Z,11.98
2022-09-13T03:15:05.417Z,11.97
2022-09-13T03:16:05.439Z,11.81
2022-09-13T03:17:05.257Z,11.83
2022-09-13T03:18:05.184Z,11.71
2022-09-13T03:19:05.100Z,11.61
2022-09-13T03:20:05.021Z,11.49
2022-09-13T03:21:04.939Z,11.59
2022-09-13T03:22:04.867Z,11.57
2022-09-13T03:23:04.780Z,11.61
2022-09-13T03:24:04.706Z,11.75
2022-09-13T03:25:04.630Z,11.71
2022-09-13T03:26:04.546Z,11.84
2022-09-13T03:27:04.464Z,11.89
2022-09-13T03:28:04.386Z,11.81
2022-09-13T03:29:04.308Z,11.75
2022-09-13T03:30:04.234Z,11.78
2022-09-13T03:31:04.154Z,11.86
2022-09-13T03:32:04.304Z,11.87
2022-09-13T03:33:03.997Z,11.81
2022-09-13T03:34:03.915Z,11.76
2022-09-13T03:35:03.836Z,11.75
2022-09-13T03:36:03.758Z,11.81
2022-09-13T03:37:03.680Z,11.83
2022-09-13T03:38:03.595Z,11.79
2022-09-13T03:39:03.518Z,11.81
2022-09-13T03:40:03.478Z,11.83
2022-09-13T03:41:03.360Z,11.79
2022-09-13T03:42:03.284Z,11.72
2022-09-13T03:43:03.213Z,11.89
2022-09-13T03:44:03.123Z,11.75
2022-09-13T03:45:03.047Z,11.76
2022-09-13T03:46:03.028Z,11.56
2022-09-13T03:47:02.883Z,11.65
2022-09-13T03:48:02.894Z,11.46
2022-09-13T03:49:02.724Z,11.53
2022-09-13T03:50:02.647Z,11.42
2022-09-13T03:51:02.572Z,11.43
2022-09-13T03:52:02.490Z,11.49
2022-09-13T03:53:02.408Z,11.41
2022-09-13T03:54:02.330Z,11.38
2022-09-13T03:55:02.251Z,11.35
2022-09-13T03:56:02.180Z,11.39
2022-09-13T03:57:02.094Z,11.41
2022-09-13T03:58:02.015Z,11.36
2022-09-13T03:59:01.934Z,11.35
2022-09-13T04:00:01.860Z,11.50
2022-09-13T04:01:01.831Z,11.56
2022-09-13T04:02:01.744Z,11.53
2022-09-13T04:03:01.619Z,11.47
2022-09-13T04:04:01.666Z,11.54
2022-09-13T04:05:01.465Z,11.53
2022-09-13T04:06:01.382Z,11.67
2022-09-13T04:07:01.302Z,11.65
2022-09-13T04:08:01.222Z,11.74
2022-09-13T04:09:01.148Z,11.59
2022-09-13T04:10:01.066Z,11.60
2022-09-13T04:11:00.984Z,11.53
2022-09-13T04:12:00.905Z,11.50
2022-09-13T04:13:00.824Z,11.46
2022-09-13T04:14:00.750Z,11.42
2022-09-13T04:15:00.666Z,11.46
2022-09-13T04:16:00.632Z,11.39
2022-09-13T04:17:00.508Z,11.50
2022-09-13T04:18:00.432Z,11.41
2022-09-13T04:19:00.350Z,11.51
2022-09-13T04:20:00.280Z,11.64
2022-09-13T04:21:00.195Z,11.67
2022-09-13T04:22:00.112Z,11.54
2022-09-13T04:23:00.030Z,11.67
2022-09-13T04:23:59.954Z,11.61
2022-09-13T04:25:02.357Z,11.68
2022-09-13T04:25:59.799Z,11.64
2022-09-13T04:26:59.725Z,11.59
2022-09-13T04:27:59.636Z,11.56
2022-09-13T04:28:59.554Z,11.60
2022-09-13T04:29:59.496Z,11.60
2022-09-13T04:30:59.400Z,11.57
2022-09-13T04:31:59.364Z,11.61
2022-09-13T04:32:59.239Z,11.67
2022-09-13T04:33:59.173Z,11.71
2022-09-13T04:34:59.083Z,11.68
2022-09-13T04:35:59.003Z,11.69
2022-09-13T04:36:58.926Z,11.57
2022-09-13T04:37:58.845Z,11.61
2022-09-13T04:38:58.765Z,11.50
2022-09-13T04:39:58.735Z,11.39
2022-09-13T04:40:58.604Z,11.31
2022-09-13T04:41:58.529Z,11.39
2022-09-13T04:42:58.448Z,11.32
2022-09-13T04:43:58.368Z,11.42
2022-09-13T04:44:58.288Z,11.36
2022-09-13T04:45:58.243Z,11.41
2022-09-13T04:46:58.127Z,11.53
2022-09-13T04:47:58.052Z,11.38
2022-09-13T04:48:57.975Z,11.49
2022-09-13T04:49:57.894Z,11.38
2022-09-13T04:50:57.810Z,11.36
2022-09-13T04:51:57.826Z,11.29
2022-09-13T04:52:57.652Z,11.41
2022-09-13T04:53:57.576Z,11.35
2022-09-13T04:54:57.493Z,11.42
2022-09-13T04:55:57.418Z,11.42
2022-09-13T04:56:57.340Z,11.41
2022-09-13T04:57:57.258Z,11.56
2022-09-13T04:58:57.177Z,11.46
2022-09-13T04:59:57.102Z,11.47
2022-09-13T05:00:57.054Z,11.49
2022-09-13T05:01:56.977Z,11.50
2022-09-13T05:02:56.863Z,11.50
2022-09-13T05:03:56.778Z,11.57
2022-09-13T05:04:56.702Z,11.54
2022-09-13T05:05:56.625Z,11.47
2022-09-13T05:06:56.546Z,11.59
2022-09-13T05:07:56.464Z,11.57
2022-09-13T05:08:56.385Z,11.59
2022-09-13T05:09:56.308Z,11.59
2022-09-13T05:10:56.226Z,11.54
2022-09-13T05:11:56.148Z,11.59
2022-09-13T05:12:56.071Z,11.54
2022-09-13T05:13:55.987Z,11.56
2022-09-13T05:14:55.912Z,11.54
2022-09-13T05:15:55.858Z,11.53
2022-09-13T05:16:55.749Z,11.56
2022-09-13T05:17:55.674Z,11.60
2022-09-13T05:18:55.588Z,11.68
2022-09-13T05:19:55.511Z,11.59
2022-09-13T05:20:55.431Z,11.64
2022-09-13T05:21:55.361Z,11.57
2022-09-13T05:22:55.272Z,11.57
2022-09-13T05:23:55.191Z,11.56
2022-09-13T05:24:55.113Z,11.57
2022-09-13T05:25:55.040Z,11.53
2022-09-13T05:26:54.956Z,11.46
2022-09-13T05:27:54.874Z,11.51
2022-09-13T05:28:54.797Z,11.50
2022-09-13T05:29:54.721Z,11.49
2022-09-13T05:30:54.720Z,11.46
2022-09-13T05:31:54.563Z,11.59
2022-09-13T05:32:54.480Z,11.54
2022-09-13T05:33:54.401Z,11.57
2022-09-13T05:34:54.319Z,11.68
2022-09-13T05:35:54.239Z,11.69
2022-09-13T05:36:54.681Z,11.83
2022-09-13T05:37:54.084Z,11.84
2022-09-13T05:39:12.122Z,11.78
2022-09-13T05:40:10.773Z,11.79
2022-09-13T05:40:53.881Z,11.95
2022-09-13T05:41:53.764Z,11.94
2022-09-13T05:42:53.683Z,11.93
2022-09-13T05:43:57.723Z,11.95
2022-09-13T05:44:53.525Z,11.93
2022-09-13T05:45:53.470Z,12.00
2022-09-13T05:46:53.365Z,12.09
2022-09-13T05:47:53.290Z,12.05
2022-09-13T05:48:53.208Z,12.08
2022-09-13T05:50:09.767Z,12.13
2022-09-13T05:50:59.841Z,12.27
2022-09-13T05:51:52.974Z,12.24
2022-09-13T05:52:52.894Z,12.26
2022-09-13T05:53:52.818Z,12.41
2022-09-13T05:54:52.737Z,12.48
2022-09-13T05:55:52.713Z,12.46
2022-09-13T05:56:52.596Z,12.44
2022-09-13T05:57:52.498Z,12.56
2022-09-13T05:58:52.419Z,12.55
2022-09-13T05:59:52.338Z,12.67
2022-09-13T06:00:52.259Z,12.63
2022-09-13T06:01:52.237Z,12.67
2022-09-13T06:02:52.140Z,12.79
2022-09-13T06:03:52.025Z,12.84
2022-09-13T06:04:51.949Z,12.89
2022-09-13T06:05:51.865Z,12.99
2022-09-13T06:06:51.788Z,12.96
2022-09-13T06:07:51.707Z,13.02
2022-09-13T06:08:51.625Z,13.14
2022-09-13T06:09:51.548Z,13.11
2022-09-13T06:10:51.467Z,13.21
2022-09-13T06:11:51.393Z,13.21
2022-09-13T06:12:51.318Z,13.27
2022-09-13T06:13:51.235Z,13.36
2022-09-13T06:14:51.151Z,13.41
2022-09-13T06:15:51.107Z,13.48
2022-09-13T06:16:51.004Z,13.55
2022-09-13T06:17:50.929Z,13.58
2022-09-13T06:18:50.960Z,13.70
2022-09-13T06:19:50.763Z,13.70
2022-09-13T06:20:50.676Z,13.61
2022-09-13T06:21:50.601Z,13.71
2022-09-13T06:22:50.533Z,13.80
2022-09-13T06:23:50.442Z,13.86
2022-09-13T06:24:50.366Z,13.87
2022-09-13T06:25:50.287Z,13.95
2022-09-13T06:26:50.203Z,13.95
2022-09-13T06:27:50.338Z,13.92
2022-09-13T06:28:50.156Z,13.89
2022-09-13T06:29:49.969Z,13.89
2022-09-13T06:30:49.889Z,13.86
2022-09-13T06:31:49.815Z,13.87
2022-09-13T06:32:49.734Z,13.95
2022-09-13T06:33:49.668Z,13.83
2022-09-13T06:34:49.582Z,13.83
2022-09-13T06:35:49.525Z,13.84
2022-09-13T06:36:49.422Z,13.84
2022-09-13T06:37:49.344Z,13.86
2022-09-13T06:38:49.398Z,13.92
2022-09-13T06:39:49.229Z,13.94
2022-09-13T06:40:49.108Z,13.98
2022-09-13T06:41:49.029Z,13.91
2022-09-13T06:42:48.945Z,13.98
2022-09-13T06:43:48.874Z,13.96
2022-09-13T06:44:48.790Z,13.94
2022-09-13T06:45:48.733Z,13.91
2022-09-13T06:46:48.649Z,13.91
2022-09-13T06:47:48.556Z,14.05
2022-09-13T06:48:48.595Z,14.11
2022-09-13T06:49:48.400Z,14.10
2022-09-13T06:50:48.323Z,14.11
2022-09-13T06:51:48.240Z,14.14
2022-09-13T06:52:48.166Z,14.20
2022-09-13T06:53:48.083Z,14.28
2022-09-13T06:54:48.010Z,14.31
2022-09-13T06:55:47.929Z,14.39
2022-09-13T06:56:47.850Z,14.32
2022-09-13T06:57:47.770Z,14.36
2022-09-13T06:58:47.694Z,14.34
2022-09-13T06:59:47.697Z,14.31
2022-09-13T07:00:47.723Z,14.41
2022-09-13T07:01:47.606Z,14.47
2022-09-13T07:02:47.379Z,14.52
2022-09-13T07:03:47.298Z,14.56
2022-09-13T07:04:47.226Z,14.60
2022-09-13T07:05:47.150Z,14.60
2022-09-13T07:06:47.068Z,14.64
2022-09-13T07:07:46.984Z,14.74
2022-09-13T07:08:46.908Z,14.78
2022-09-13T07:09:46.832Z,14.79
2022-09-13T07:10:46.758Z,14.78
2022-09-13T07:11:46.672Z,14.85
2022-09-13T07:12:46.609Z,14.87
2022-09-13T07:13:46.515Z,14.97
2022-09-13T07:14:46.441Z,15.02
2022-09-13T07:15:46.408Z,15.09
2022-09-13T07:16:46.286Z,15.16
2022-09-13T07:17:46.204Z,15.10
2022-09-13T07:18:46.185Z,15.24
2022-09-13T07:19:46.048Z,15.31
2022-09-13T07:20:45.970Z,15.35
2022-09-13T07:21:45.901Z,15.41
2022-09-13T07:22:45.823Z,15.55
2022-09-13T07:23:45.735Z,15.53
2022-09-13T07:24:45.659Z,15.67
2022-09-13T07:25:45.588Z,15.60
2022-09-13T07:26:45.501Z,15.55
2022-09-13T07:27:45.426Z,15.55
2022-09-13T07:28:45.356Z,15.61
2022-09-13T07:29:45.272Z,15.63
2022-09-13T07:30:45.226Z,15.66
2022-09-13T07:31:45.118Z,15.78
2022-09-13T07:32:45.037Z,15.71
2022-09-13T07:33:44.957Z,15.79
2022-09-13T07:34:44.880Z,15.82
2022-09-13T07:35:44.801Z,15.91
2022-09-13T07:36:44.732Z,15.97
2022-09-13T07:37:44.647Z,15.97
2022-09-13T07:38:44.577Z,16.06
2022-09-13T07:39:44.541Z,16.14
2022-09-13T07:40:44.415Z,16.07
2022-09-13T07:41:44.339Z,16.16
2022-09-13T07:42:44.262Z,16.18
2022-09-13T07:43:44.179Z,16.20
2022-09-13T07:44:44.103Z,16.14
2022-09-13T07:45:44.030Z,16.30
2022-09-13T07:46:43.951Z,16.29
2022-09-13T07:47:43.872Z,16.34
2022-09-13T07:48:43.842Z,16.40
2022-09-13T07:49:43.715Z,16.42
2022-09-13T07:50:43.637Z,16.41
2022-09-13T07:51:43.564Z,16.53
2022-09-13T07:52:43.487Z,16.59
2022-09-13T07:53:43.411Z,16.67
2022-09-13T07:54:43.330Z,16.67
2022-09-13T07:55:43.255Z,16.74
2022-09-13T07:56:43.177Z,16.82
2022-09-13T07:57:43.097Z,16.81
2022-09-13T07:58:43.106Z,16.89
2022-09-13T07:59:42.943Z,16.90
2022-09-13T08:00:42.866Z,17.02
2022-09-13T08:01:42.905Z,16.96
2022-09-13T08:02:42.774Z,17.07
2022-09-13T08:03:42.787Z,17.11
2022-09-13T08:04:42.569Z,17.21
2022-09-13T08:05:42.477Z,17.20
2022-09-13T08:06:42.401Z,17.30
2022-09-13T08:07:42.328Z,17.23
2022-09-13T08:08:42.250Z,17.33
2022-09-13T08:09:42.179Z,17.33
2022-09-13T08:10:44.325Z,17.43
2022-09-13T08:11:42.017Z,17.40
2022-09-13T08:12:41.943Z,17.58
2022-09-13T08:13:41.862Z,17.54
2022-09-13T08:14:41.786Z,17.74
2022-09-13T08:15:41.749Z,17.66
2022-09-13T08:16:41.631Z,17.64
2022-09-13T08:17:41.558Z,17.69
2022-09-13T08:18:41.484Z,17.76
2022-09-13T08:19:41.410Z,17.85
2022-09-13T08:20:41.325Z,17.88
2022-09-13T08:21:41.247Z,17.88
2022-09-13T08:22:41.172Z,17.91
2022-09-13T08:23:41.094Z,18.03
2022-09-13T08:24:41.025Z,18.04
2022-09-13T08:25:40.940Z,18.19
2022-09-13T08:26:40.861Z,18.25
2022-09-13T08:27:40.789Z,18.39
2022-09-13T08:28:40.714Z,18.50
2022-09-13T08:29:40.637Z,18.57
2022-09-13T08:30:40.588Z,18.58
2022-09-13T08:31:40.478Z,18.71
2022-09-13T08:32:40.416Z,18.67
2022-09-13T08:33:47.912Z,18.82
2022-09-13T08:34:40.253Z,18.80
2022-09-13T08:35:40.171Z,18.89
2022-09-13T08:36:40.100Z,18.95
2022-09-13T08:37:40.028Z,18.98
2022-09-13T08:38:39.945Z,18.97
2022-09-13T08:39:39.973Z,18.97
2022-09-13T08:40:39.791Z,18.98
2022-09-13T08:41:39.715Z,18.97
2022-09-13T08:42:39.642Z,19.02
2022-09-13T08:43:39.567Z,19.06
2022-09-13T08:44:39.493Z,19.18
2022-09-13T08:45:39.412Z,19.27
2022-09-13T08:46:39.409Z,19.28
2022-09-13T08:47:39.263Z,19.35
2022-09-13T08:48:39.185Z,19.31
2022-09-13T08:49:39.111Z,19.36
2022-09-13T08:50:39.034Z,19.43
2022-09-13T08:51:38.968Z,19.48
2022-09-13T08:52:38.885Z,19.57
2022-09-13T08:53:38.804Z,19.68
2022-09-13T08:54:38.736Z,19.76
2022-09-13T08:55:38.648Z,19.78
2022-09-13T08:56:38.580Z,19.79
2022-09-13T08:57:38.501Z,19.78
2022-09-13T08:58:38.428Z,19.83
2022-09-13T08:59:38.353Z,19.91
2022-09-13T09:00:38.272Z,19.90
2022-09-13T09:01:38.287Z,19.98
2022-09-13T09:02:38.132Z,20.05
2022-09-13T09:03:38.061Z,20.18
2022-09-13T09:04:37.971Z,20.30
2022-09-13T09:05:37.894Z,20.31
2022-09-13T09:06:37.819Z,20.38
2022-09-13T09:07:37.745Z,20.40
2022-09-13T09:08:37.670Z,20.47
2022-09-13T09:09:37.592Z,20.50
2022-09-13T09:10:37.522Z,20.57
2022-09-13T09:11:37.439Z,20.54
2022-09-13T09:12:37.367Z,20.64
2022-09-13T09:13:37.411Z,20.76
2022-09-13T09:14:37.219Z,20.69
2022-09-13T09:15:37.179Z,20.76
2022-09-13T09:16:37.067Z,20.80
2022-09-13T09:17:36.991Z,20.87
2022-09-13T09:18:36.920Z,20.90
2022-09-13T09:19:36.839Z,20.83
2022-09-13T09:20:36.768Z,20.64
2022-09-13T09:21:36.695Z,20.72
2022-09-13T09:22:36.615Z,20.65
2022-09-13T09:23:36.543Z,20.71
2022-09-13T09:24:36.468Z,20.64
2022-09-13T09:25:36.388Z,20.69
2022-09-13T09:26:36.317Z,20.66
2022-09-13T09:27:36.238Z,20.68
2022-09-13T09:28:36.165Z,20.74
2022-09-13T09:29:36.088Z,20.68
2022-09-13T09:30:36.042Z,20.65
2022-09-13T09:31:35.940Z,20.62
2022-09-13T09:32:35.866Z,20.59
2022-09-13T09:33:35.795Z,20.59
2022-09-13T09:34:35.717Z,20.61
2022-09-13T09:35:35.639Z,20.62
2022-09-13T09:36:35.568Z,20.66
2022-09-13T09:37:35.491Z,20.65
2022-09-13T09:38:35.416Z,20.65
2022-09-13T09:39:35.355Z,20.64
2022-09-13T09:40:35.313Z,20.65
2022-09-13T09:41:35.196Z,20.64
2022-09-13T09:42:35.121Z,20.61
2022-09-13T09:43:35.042Z,20.65
2022-09-13T09:44:34.972Z,20.68
2022-09-13T09:45:34.893Z,20.64
2022-09-13T09:46:34.872Z,20.66
2022-09-13T09:47:34.745Z,20.64
2022-09-13T09:48:34.667Z,20.61
2022-09-13T09:49:34.597Z,20.69
2022-09-13T09:50:34.518Z,20.72
2022-09-13T09:51:34.443Z,20.74
2022-09-13T09:52:34.374Z,20.65
2022-09-13T09:53:36.993Z,20.66
2022-09-13T09:54:34.224Z,20.80
2022-09-13T09:55:34.151Z,20.83
2022-09-13T09:56:34.074Z,20.75
2022-09-13T09:57:33.996Z,20.75
2022-09-13T09:58:33.920Z,20.86
2022-09-13T09:59:33.878Z,20.87
2022-09-13T10:00:33.777Z,20.87
2022-09-13T10:01:33.747Z,20.87
2022-09-13T10:02:33.643Z,20.93
2022-09-13T10:03:33.545Z,20.91
2022-09-13T10:04:33.471Z,20.99
2022-09-13T10:05:33.396Z,20.93
2022-09-13T10:06:33.329Z,20.96
2022-09-13T10:07:33.247Z,21.02
2022-09-13T10:08:33.179Z,20.96
2022-09-13T10:09:33.101Z,20.98
2022-09-13T10:10:33.025Z,20.98
2022-09-13T10:11:32.952Z,20.96
2022-09-13T10:12:32.882Z,20.91
2022-09-13T10:13:32.808Z,21.02
2022-09-13T10:14:32.727Z,20.99
2022-09-13T10:15:32.651Z,20.89
2022-09-13T10:16:32.633Z,20.89
2022-09-13T10:17:32.499Z,20.75
2022-09-13T10:18:43.917Z,20.80
2022-09-13T10:19:32.352Z,20.79
2022-09-13T10:20:32.280Z,20.68
2022-09-13T10:21:32.205Z,20.68
2022-09-13T10:22:32.134Z,20.69
2022-09-13T10:23:32.055Z,20.72
2022-09-13T10:24:31.986Z,20.66
2022-09-13T10:25:31.904Z,20.83
2022-09-13T10:26:31.836Z,20.66
2022-09-13T10:27:31.758Z,20.76
2022-09-13T10:28:31.681Z,20.80
2022-09-13T10:29:31.619Z,20.72
2022-09-13T10:30:31.575Z,20.79
2022-09-13T10:31:31.466Z,20.89
2022-09-13T10:32:31.386Z,20.98
2022-09-13T10:33:31.313Z,20.96
2022-09-13T10:34:31.235Z,20.96
2022-09-13T10:35:31.158Z,20.98
2022-09-13T10:36:51.174Z,20.93
2022-09-13T10:37:31.011Z,20.99
2022-09-13T10:38:30.936Z,20.99
2022-09-13T10:39:30.860Z,21.11
2022-09-13T10:40:30.788Z,21.02
2022-09-13T10:41:30.715Z,21.01
2022-09-13T10:42:30.643Z,21.02
2022-09-13T10:43:30.569Z,20.87
2022-09-13T10:44:30.498Z,20.90
2022-09-13T10:45:30.421Z,20.98
2022-09-13T10:46:30.344Z,20.94
2022-09-13T10:47:30.271Z,20.98
2022-09-13T10:48:30.195Z,20.98
2022-09-13T10:49:30.127Z,21.01
2022-09-13T10:50:30.043Z,21.05
2022-09-13T10:51:29.973Z,21.06
2022-09-13T10:52:29.902Z,21.02
2022-09-13T10:53:29.825Z,21.06
2022-09-13T10:54:29.750Z,21.09
2022-09-13T10:55:29.674Z,21.05
2022-09-13T10:56:29.601Z,21.05
2022-09-13T10:57:29.527Z,21.12
2022-09-13T10:58:29.455Z,21.04
2022-09-13T10:59:29.379Z,21.16
2022-09-13T11:00:29.308Z,21.01
2022-09-13T11:01:29.307Z,21.16
2022-09-13T11:02:29.155Z,21.08
2022-09-13T11:03:29.078Z,21.06
2022-09-13T11:04:29.047Z,21.06
2022-09-13T11:05:28.939Z,21.14
2022-09-13T11:06:28.853Z,21.24
2022-09-13T11:07:28.784Z,21.05
2022-09-13T11:08:28.709Z,21.17
2022-09-13T11:09:28.646Z,21.20
2022-09-13T11:10:28.561Z,21.14
2022-09-13T11:11:28.486Z,21.20
2022-09-13T11:12:28.411Z,21.31
2022-09-13T11:13:28.337Z,21.39
2022-09-13T11:14:28.261Z,21.48
2022-09-13T11:15:28.189Z,21.56
2022-09-13T11:16:28.159Z,21.64
2022-09-13T11:17:28.042Z,21.74
2022-09-13T11:18:27.964Z,21.85
2022-09-13T11:19:27.895Z,21.84
2022-09-13T11:20:27.815Z,22.00
2022-09-13T11:21:27.747Z,22.04
2022-09-13T11:22:27.672Z,22.08
2022-09-13T11:23:27.598Z,22.05
2022-09-13T11:24:27.522Z,22.19
2022-09-13T11:25:27.454Z,22.22
2022-09-13T11:26:27.372Z,22.30
2022-09-13T11:27:27.302Z,22.34
2022-09-13T11:28:27.230Z,22.34
2022-09-13T11:29:27.158Z,22.44
2022-09-13T11:30:30.051Z,22.44
2022-09-13T11:31:27.179Z,22.46
2022-09-13T11:32:26.935Z,22.53
2022-09-13T11:33:26.856Z,22.52
2022-09-13T11:34:26.784Z,22.46
2022-09-13T11:35:26.711Z,22.50
2022-09-13T11:36:26.637Z,22.52
2022-09-13T11:37:26.566Z,22.62
2022-09-13T11:38:26.492Z,22.65
2022-09-13T11:39:26.418Z,22.62
2022-09-13T11:40:26.404Z,22.59
2022-09-13T11:41:26.272Z,22.71
2022-09-13T11:42:26.191Z,22.68
2022-09-13T11:43:26.122Z,22.62
2022-09-13T11:44:26.051Z,22.53
2022-09-13T11:45:25.974Z,22.53
2022-09-13T11:46:25.905Z,22.59
2022-09-13T11:47:25.854Z,22.41
2022-09-13T11:48:25.753Z,22.41
2022-09-13T11:49:25.681Z,22.24
2022-09-13T11:50:25.610Z,22.26
2022-09-13T11:51:25.531Z,22.20
2022-09-13T11:52:25.461Z,22.19
2022-09-13T11:53:29.470Z,22.16
2022-09-13T11:54:25.313Z,22.13
2022-09-13T11:55:25.239Z,22.15
2022-09-13T11:56:25.164Z,22.17
2022-09-13T11:57:25.091Z,22.17
2022-09-13T11:58:25.018Z,22.13
2022-09-13T11:59:24.947Z,22.19
2022-09-13T12:00:24.869Z,22.23
2022-09-13T12:01:24.796Z,22.26
2022-09-13T12:02:24.833Z,22.30
2022-09-13T12:03:24.760Z,22.26
2022-09-13T12:04:25.522Z,22.30
2022-09-13T12:05:24.616Z,22.37
2022-09-13T12:06:24.434Z,22.26
2022-09-13T12:07:24.359Z,22.23
2022-09-13T12:08:24.288Z,22.19
2022-09-13T12:09:24.208Z,22.23
2022-09-13T12:10:24.139Z,22.20
2022-09-13T12:11:24.063Z,22.19
2022-09-13T12:12:23.989Z,22.13
2022-09-13T12:13:23.920Z,22.08
2022-09-13T12:14:23.842Z,22.13
2022-09-13T12:15:23.771Z,22.05
2022-09-13T12:16:23.739Z,22.10
2022-09-13T12:17:23.623Z,22.08
2022-09-13T12:18:23.552Z,22.19
2022-09-13T12:19:23.476Z,22.12
2022-09-13T12:20:23.399Z,22.17
2022-09-13T12:21:23.337Z,22.23
2022-09-13T12:22:25.632Z,22.26
2022-09-13T12:23:23.192Z,22.24
2022-09-13T12:24:23.108Z,22.35
2022-09-13T12:25:23.036Z,22.38
2022-09-13T12:26:22.961Z,22.42
2022-09-13T12:27:22.889Z,22.38
2022-09-13T12:28:22.825Z,22.47
2022-09-13T12:29:22.741Z,22.50
2022-09-13T12:30:22.664Z,22.49
2022-09-13T12:31:22.623Z,22.52
2022-09-13T12:32:22.523Z,22.53
2022-09-13T12:33:22.453Z,22.52
2022-09-13T12:34:22.376Z,22.72
2022-09-13T12:35:22.359Z,22.56
2022-09-13T12:36:22.233Z,22.62
2022-09-13T12:37:22.155Z,22.56
2022-09-13T12:38:22.086Z,22.63
2022-09-13T12:39:22.009Z,22.65
2022-09-13T12:40:22.002Z,22.72
2022-09-13T12:41:21.864Z,22.65
2022-09-13T12:42:21.788Z,22.65
2022-09-13T12:43:21.715Z,22.57
2022-09-13T12:44:21.639Z,22.60
2022-09-13T12:45:21.569Z,22.72
2022-09-13T12:46:21.496Z,22.69
2022-09-13T12:47:21.433Z,22.65
2022-09-13T12:48:21.346Z,22.65
2022-09-13T12:49:21.278Z,22.59
2022-09-13T12:50:42.476Z,22.83
2022-09-13T12:51:21.135Z,22.69